sensor_id;sensor_type;location;lat;lon;timestamp;P1;durP1;ratioP1;P2;durP2;ratioP2
74995;SDS011;63545;51.690;5.202;2023-07-31T00:00:58;49.50;;;11.57;;
74995;SDS011;63545;51.690;5.202;2023-07-31T00:03:24;63.13;;;13.33;;
74995;SDS011;63545;51.690;5.202;2023-07-31T00:05:49;56.40;;;13.30;;
74995;SDS011;63545;51.690;5.202;2023-07-31T00:08:14;66.13;;;13.02;;
74995;SDS011;63545;51.690;5.202;2023-07-31T00:10:40;54.00;;;12.77;;
74995;SDS011;63545;51.690;5.202;2023-07-31T00:13:05;58.47;;;11.83;;
74995;SDS011;63545;51.690;5.202;2023-07-31T00:15:30;49.63;;;12.63;;
74995;SDS011;63545;51.690;5.202;2023-07-31T00:17:56;50.77;;;12.23;;
74995;SDS011;63545;51.690;5.202;2023-07-31T00:20:21;59.40;;;12.40;;
74995;SDS011;63545;51.690;5.202;2023-07-31T00:22:47;45.47;;;10.80;;
74995;SDS011;63545;51.690;5.202;2023-07-31T00:25:12;56.93;;;12.10;;
74995;SDS011;63545;51.690;5.202;2023-07-31T00:27:37;44.17;;;10.63;;
74995;SDS011;63545;51.690;5.202;2023-07-31T00:30:03;52.37;;;10.97;;
74995;SDS011;63545;51.690;5.202;2023-07-31T00:32:29;49.92;;;10.27;;
74995;SDS011;63545;51.690;5.202;2023-07-31T00:34:54;44.53;;;10.60;;
74995;SDS011;63545;51.690;5.202;2023-07-31T00:37:20;55.57;;;10.60;;
74995;SDS011;63545;51.690;5.202;2023-07-31T00:39:45;39.90;;;9.77;;
74995;SDS011;63545;51.690;5.202;2023-07-31T00:42:10;41.77;;;9.83;;
74995;SDS011;63545;51.690;5.202;2023-07-31T00:44:36;42.80;;;10.67;;
74995;SDS011;63545;51.690;5.202;2023-07-31T00:47:01;41.83;;;10.63;;
74995;SDS011;63545;51.690;5.202;2023-07-31T00:49:26;47.70;;;10.37;;
74995;SDS011;63545;51.690;5.202;2023-07-31T00:51:52;46.23;;;9.93;;
74995;SDS011;63545;51.690;5.202;2023-07-31T00:54:18;37.27;;;9.73;;
74995;SDS011;63545;51.690;5.202;2023-07-31T00:56:45;34.97;;;9.87;;
74995;SDS011;63545;51.690;5.202;2023-07-31T00:59:11;40.03;;;10.15;;
74995;SDS011;63545;51.690;5.202;2023-07-31T01:01:36;47.90;;;10.43;;
74995;SDS011;63545;51.690;5.202;2023-07-31T01:04:02;42.08;;;9.45;;
74995;SDS011;63545;51.690;5.202;2023-07-31T01:09:16;40.45;;;10.00;;
74995;SDS011;63545;51.690;5.202;2023-07-31T01:11:59;39.05;;;10.38;;
74995;SDS011;63545;51.690;5.202;2023-07-31T01:14:26;37.13;;;9.30;;
74995;SDS011;63545;51.690;5.202;2023-07-31T01:16:51;38.93;;;9.63;;
74995;SDS011;63545;51.690;5.202;2023-07-31T01:19:17;36.43;;;8.87;;
74995;SDS011;63545;51.690;5.202;2023-07-31T01:24:23;38.15;;;9.48;;
74995;SDS011;63545;51.690;5.202;2023-07-31T01:27:17;35.25;;;8.65;;
74995;SDS011;63545;51.690;5.202;2023-07-31T01:29:48;42.07;;;9.60;;
74995;SDS011;63545;51.690;5.202;2023-07-31T01:32:18;36.35;;;8.80;;
74995;SDS011;63545;51.690;5.202;2023-07-31T01:34:44;36.75;;;9.40;;
74995;SDS011;63545;51.690;5.202;2023-07-31T01:37:10;30.25;;;7.95;;
74995;SDS011;63545;51.690;5.202;2023-07-31T01:39:36;33.63;;;8.90;;
74995;SDS011;63545;51.690;5.202;2023-07-31T01:42:01;38.57;;;9.87;;
74995;SDS011;63545;51.690;5.202;2023-07-31T01:44:26;37.07;;;10.10;;
74995;SDS011;63545;51.690;5.202;2023-07-31T01:46:52;34.53;;;10.10;;
74995;SDS011;63545;51.690;5.202;2023-07-31T01:49:17;40.87;;;10.27;;
74995;SDS011;63545;51.690;5.202;2023-07-31T01:51:43;35.00;;;10.30;;
74995;SDS011;63545;51.690;5.202;2023-07-31T01:54:08;42.30;;;10.00;;
74995;SDS011;63545;51.690;5.202;2023-07-31T01:56:33;36.50;;;9.73;;
74995;SDS011;63545;51.690;5.202;2023-07-31T01:58:59;37.30;;;9.67;;
74995;SDS011;63545;51.690;5.202;2023-07-31T02:01:24;36.70;;;9.48;;
74995;SDS011;63545;51.690;5.202;2023-07-31T02:03:49;37.43;;;10.33;;
74995;SDS011;63545;51.690;5.202;2023-07-31T02:06:15;35.23;;;9.90;;
74995;SDS011;63545;51.690;5.202;2023-07-31T02:08:40;36.00;;;9.10;;
74995;SDS011;63545;51.690;5.202;2023-07-31T02:11:05;30.10;;;8.90;;
74995;SDS011;63545;51.690;5.202;2023-07-31T02:13:31;34.73;;;8.87;;
74995;SDS011;63545;51.690;5.202;2023-07-31T02:15:56;31.80;;;7.70;;
74995;SDS011;63545;51.690;5.202;2023-07-31T02:18:22;30.35;;;8.18;;
74995;SDS011;63545;51.690;5.202;2023-07-31T02:20:51;34.63;;;8.30;;
74995;SDS011;63545;51.690;5.202;2023-07-31T02:23:17;35.30;;;7.73;;
74995;SDS011;63545;51.690;5.202;2023-07-31T02:25:45;28.20;;;8.13;;
74995;SDS011;63545;51.690;5.202;2023-07-31T02:28:10;31.33;;;7.57;;
74995;SDS011;63545;51.690;5.202;2023-07-31T02:30:36;35.60;;;8.17;;
74995;SDS011;63545;51.690;5.202;2023-07-31T02:33:01;31.77;;;8.47;;
74995;SDS011;63545;51.690;5.202;2023-07-31T02:35:27;27.30;;;8.02;;
74995;SDS011;63545;51.690;5.202;2023-07-31T02:37:52;28.17;;;8.30;;
74995;SDS011;63545;51.690;5.202;2023-07-31T02:40:18;30.67;;;8.83;;
74995;SDS011;63545;51.690;5.202;2023-07-31T02:42:43;26.77;;;7.90;;
74995;SDS011;63545;51.690;5.202;2023-07-31T02:45:08;28.13;;;7.63;;
74995;SDS011;63545;51.690;5.202;2023-07-31T02:47:34;21.63;;;6.77;;
74995;SDS011;63545;51.690;5.202;2023-07-31T02:49:59;32.30;;;8.17;;
74995;SDS011;63545;51.690;5.202;2023-07-31T02:52:25;30.03;;;7.87;;
74995;SDS011;63545;51.690;5.202;2023-07-31T02:54:51;26.67;;;7.70;;
74995;SDS011;63545;51.690;5.202;2023-07-31T02:57:16;30.37;;;8.47;;
74995;SDS011;63545;51.690;5.202;2023-07-31T02:59:41;35.13;;;7.97;;
74995;SDS011;63545;51.690;5.202;2023-07-31T03:02:07;35.90;;;8.20;;
74995;SDS011;63545;51.690;5.202;2023-07-31T03:04:32;37.80;;;8.73;;
74995;SDS011;63545;51.690;5.202;2023-07-31T03:06:57;25.70;;;7.77;;
74995;SDS011;63545;51.690;5.202;2023-07-31T03:09:23;29.57;;;7.60;;
74995;SDS011;63545;51.690;5.202;2023-07-31T03:11:48;25.00;;;7.30;;
74995;SDS011;63545;51.690;5.202;2023-07-31T03:14:13;34.23;;;7.47;;
74995;SDS011;63545;51.690;5.202;2023-07-31T03:16:39;24.17;;;7.67;;
74995;SDS011;63545;51.690;5.202;2023-07-31T03:19:04;26.97;;;7.60;;
74995;SDS011;63545;51.690;5.202;2023-07-31T03:21:29;28.97;;;8.07;;
74995;SDS011;63545;51.690;5.202;2023-07-31T03:23:55;27.13;;;7.00;;
74995;SDS011;63545;51.690;5.202;2023-07-31T03:26:20;30.70;;;7.50;;
74995;SDS011;63545;51.690;5.202;2023-07-31T03:28:45;26.07;;;7.00;;
74995;SDS011;63545;51.690;5.202;2023-07-31T03:31:11;23.03;;;7.40;;
74995;SDS011;63545;51.690;5.202;2023-07-31T03:33:36;24.30;;;7.77;;
74995;SDS011;63545;51.690;5.202;2023-07-31T03:36:02;32.17;;;7.93;;
74995;SDS011;63545;51.690;5.202;2023-07-31T03:38:27;29.30;;;8.03;;
74995;SDS011;63545;51.690;5.202;2023-07-31T03:40:53;24.83;;;7.97;;
74995;SDS011;63545;51.690;5.202;2023-07-31T03:43:18;29.65;;;7.88;;
74995;SDS011;63545;51.690;5.202;2023-07-31T03:45:43;25.57;;;7.97;;
74995;SDS011;63545;51.690;5.202;2023-07-31T03:48:09;35.93;;;8.00;;
74995;SDS011;63545;51.690;5.202;2023-07-31T03:50:34;31.00;;;8.20;;
74995;SDS011;63545;51.690;5.202;2023-07-31T03:53:00;30.97;;;8.00;;
74995;SDS011;63545;51.690;5.202;2023-07-31T03:55:25;31.10;;;8.27;;
74995;SDS011;63545;51.690;5.202;2023-07-31T03:57:50;26.47;;;7.60;;
74995;SDS011;63545;51.690;5.202;2023-07-31T04:00:16;29.90;;;7.80;;
74995;SDS011;63545;51.690;5.202;2023-07-31T04:02:41;30.73;;;8.07;;
74995;SDS011;63545;51.690;5.202;2023-07-31T04:05:07;26.30;;;8.03;;
74995;SDS011;63545;51.690;5.202;2023-07-31T04:07:33;26.50;;;8.57;;
74995;SDS011;63545;51.690;5.202;2023-07-31T04:09:58;28.13;;;8.00;;
74995;SDS011;63545;51.690;5.202;2023-07-31T04:12:24;32.20;;;8.00;;
74995;SDS011;63545;51.690;5.202;2023-07-31T04:14:49;29.20;;;7.97;;
74995;SDS011;63545;51.690;5.202;2023-07-31T04:17:15;28.00;;;7.60;;
74995;SDS011;63545;51.690;5.202;2023-07-31T04:19:40;29.90;;;7.93;;
74995;SDS011;63545;51.690;5.202;2023-07-31T04:22:05;33.67;;;8.03;;
74995;SDS011;63545;51.690;5.202;2023-07-31T04:24:31;24.27;;;7.53;;
74995;SDS011;63545;51.690;5.202;2023-07-31T04:26:56;24.10;;;7.30;;
74995;SDS011;63545;51.690;5.202;2023-07-31T04:29:21;27.87;;;7.03;;
74995;SDS011;63545;51.690;5.202;2023-07-31T04:31:47;21.65;;;7.38;;
74995;SDS011;63545;51.690;5.202;2023-07-31T04:34:13;27.23;;;7.87;;
74995;SDS011;63545;51.690;5.202;2023-07-31T04:36:38;24.05;;;7.40;;
74995;SDS011;63545;51.690;5.202;2023-07-31T04:39:04;22.30;;;7.67;;
74995;SDS011;63545;51.690;5.202;2023-07-31T04:41:29;34.43;;;7.47;;
74995;SDS011;63545;51.690;5.202;2023-07-31T04:43:54;25.60;;;7.27;;
74995;SDS011;63545;51.690;5.202;2023-07-31T04:46:20;23.50;;;7.33;;
74995;SDS011;63545;51.690;5.202;2023-07-31T04:48:45;26.27;;;7.77;;
74995;SDS011;63545;51.690;5.202;2023-07-31T04:51:10;34.53;;;8.57;;
74995;SDS011;63545;51.690;5.202;2023-07-31T04:53:36;23.07;;;7.47;;
74995;SDS011;63545;51.690;5.202;2023-07-31T04:56:02;30.50;;;8.47;;
74995;SDS011;63545;51.690;5.202;2023-07-31T04:58:27;22.65;;;7.90;;
74995;SDS011;63545;51.690;5.202;2023-07-31T05:00:53;26.93;;;7.17;;
74995;SDS011;63545;51.690;5.202;2023-07-31T05:03:18;30.67;;;7.23;;
74995;SDS011;63545;51.690;5.202;2023-07-31T05:05:43;25.40;;;7.07;;
74995;SDS011;63545;51.690;5.202;2023-07-31T05:08:09;26.60;;;7.07;;
74995;SDS011;63545;51.690;5.202;2023-07-31T05:10:34;33.37;;;7.10;;
74995;SDS011;63545;51.690;5.202;2023-07-31T05:12:59;33.97;;;7.93;;
74995;SDS011;63545;51.690;5.202;2023-07-31T05:15:25;25.27;;;7.27;;
74995;SDS011;63545;51.690;5.202;2023-07-31T05:17:50;32.13;;;7.37;;
74995;SDS011;63545;51.690;5.202;2023-07-31T05:20:16;43.27;;;8.87;;
74995;SDS011;63545;51.690;5.202;2023-07-31T05:22:41;38.67;;;7.67;;
74995;SDS011;63545;51.690;5.202;2023-07-31T05:25:06;33.75;;;8.32;;
74995;SDS011;63545;51.690;5.202;2023-07-31T05:27:32;31.23;;;7.87;;
74995;SDS011;63545;51.690;5.202;2023-07-31T05:29:57;32.93;;;7.83;;
74995;SDS011;63545;51.690;5.202;2023-07-31T05:32:23;30.60;;;8.07;;
74995;SDS011;63545;51.690;5.202;2023-07-31T05:34:50;29.63;;;8.00;;
74995;SDS011;63545;51.690;5.202;2023-07-31T05:37:16;43.63;;;8.17;;
74995;SDS011;63545;51.690;5.202;2023-07-31T05:39:42;33.65;;;8.50;;
74995;SDS011;63545;51.690;5.202;2023-07-31T05:42:07;40.37;;;7.90;;
74995;SDS011;63545;51.690;5.202;2023-07-31T05:44:33;33.53;;;8.37;;
74995;SDS011;63545;51.690;5.202;2023-07-31T05:46:58;39.27;;;8.07;;
74995;SDS011;63545;51.690;5.202;2023-07-31T05:49:23;25.57;;;6.93;;
74995;SDS011;63545;51.690;5.202;2023-07-31T05:51:49;26.13;;;8.20;;
74995;SDS011;63545;51.690;5.202;2023-07-31T05:54:14;25.00;;;6.63;;
74995;SDS011;63545;51.690;5.202;2023-07-31T05:56:40;25.43;;;7.57;;
74995;SDS011;63545;51.690;5.202;2023-07-31T05:59:05;24.13;;;7.17;;
74995;SDS011;63545;51.690;5.202;2023-07-31T06:01:30;27.27;;;7.53;;
74995;SDS011;63545;51.690;5.202;2023-07-31T06:03:56;21.73;;;6.63;;
74995;SDS011;63545;51.690;5.202;2023-07-31T06:06:21;27.70;;;6.97;;
74995;SDS011;63545;51.690;5.202;2023-07-31T06:08:47;23.07;;;6.67;;
74995;SDS011;63545;51.690;5.202;2023-07-31T06:11:12;29.50;;;6.67;;
74995;SDS011;63545;51.690;5.202;2023-07-31T06:13:37;21.93;;;6.40;;
74995;SDS011;63545;51.690;5.202;2023-07-31T06:16:03;22.03;;;6.63;;
74995;SDS011;63545;51.690;5.202;2023-07-31T06:18:33;20.98;;;6.18;;
74995;SDS011;63545;51.690;5.202;2023-07-31T06:20:59;16.60;;;5.82;;
74995;SDS011;63545;51.690;5.202;2023-07-31T06:23:24;13.33;;;5.27;;
74995;SDS011;63545;51.690;5.202;2023-07-31T06:25:49;15.40;;;5.20;;
74995;SDS011;63545;51.690;5.202;2023-07-31T06:28:15;13.70;;;5.15;;
74995;SDS011;63545;51.690;5.202;2023-07-31T06:30:40;14.53;;;5.30;;
74995;SDS011;63545;51.690;5.202;2023-07-31T06:33:06;15.90;;;5.37;;
74995;SDS011;63545;51.690;5.202;2023-07-31T06:35:31;12.40;;;5.37;;
74995;SDS011;63545;51.690;5.202;2023-07-31T06:37:56;15.90;;;6.20;;
74995;SDS011;63545;51.690;5.202;2023-07-31T06:40:22;14.73;;;5.63;;
74995;SDS011;63545;51.690;5.202;2023-07-31T06:42:47;11.63;;;5.25;;
74995;SDS011;63545;51.690;5.202;2023-07-31T06:45:13;11.17;;;5.23;;
74995;SDS011;63545;51.690;5.202;2023-07-31T06:47:38;10.90;;;4.93;;
74995;SDS011;63545;51.690;5.202;2023-07-31T06:50:04;12.70;;;5.17;;
74995;SDS011;63545;51.690;5.202;2023-07-31T06:52:30;10.30;;;4.80;;
74995;SDS011;63545;51.690;5.202;2023-07-31T06:55:18;10.17;;;4.80;;
74995;SDS011;63545;51.690;5.202;2023-07-31T06:57:45;8.45;;;4.65;;
74995;SDS011;63545;51.690;5.202;2023-07-31T07:00:11;10.77;;;4.72;;
74995;SDS011;63545;51.690;5.202;2023-07-31T07:02:38;7.55;;;4.35;;
74995;SDS011;63545;51.690;5.202;2023-07-31T07:05:03;10.97;;;4.30;;
74995;SDS011;63545;51.690;5.202;2023-07-31T07:07:29;9.47;;;4.40;;
74995;SDS011;63545;51.690;5.202;2023-07-31T07:09:54;7.18;;;4.00;;
74995;SDS011;63545;51.690;5.202;2023-07-31T07:12:20;6.90;;;3.77;;
74995;SDS011;63545;51.690;5.202;2023-07-31T07:14:45;8.90;;;4.50;;
74995;SDS011;63545;51.690;5.202;2023-07-31T07:17:13;7.53;;;3.83;;
74995;SDS011;63545;51.690;5.202;2023-07-31T07:19:41;9.73;;;4.50;;
74995;SDS011;63545;51.690;5.202;2023-07-31T07:22:07;8.18;;;4.25;;
74995;SDS011;63545;51.690;5.202;2023-07-31T07:24:32;6.73;;;4.10;;
74995;SDS011;63545;51.690;5.202;2023-07-31T07:26:58;8.27;;;4.70;;
74995;SDS011;63545;51.690;5.202;2023-07-31T07:29:23;8.23;;;4.93;;
74995;SDS011;63545;51.690;5.202;2023-07-31T07:31:48;7.50;;;4.33;;
74995;SDS011;63545;51.690;5.202;2023-07-31T07:34:14;9.63;;;4.77;;
74995;SDS011;63545;51.690;5.202;2023-07-31T07:36:39;4.90;;;3.23;;
74995;SDS011;63545;51.690;5.202;2023-07-31T07:39:05;8.37;;;4.80;;
74995;SDS011;63545;51.690;5.202;2023-07-31T07:41:30;8.90;;;4.07;;
74995;SDS011;63545;51.690;5.202;2023-07-31T07:43:55;6.80;;;4.30;;
74995;SDS011;63545;51.690;5.202;2023-07-31T07:46:21;9.17;;;5.07;;
74995;SDS011;63545;51.690;5.202;2023-07-31T07:48:46;10.63;;;5.30;;
74995;SDS011;63545;51.690;5.202;2023-07-31T07:51:11;11.07;;;6.17;;
74995;SDS011;63545;51.690;5.202;2023-07-31T07:53:37;8.63;;;6.13;;
74995;SDS011;63545;51.690;5.202;2023-07-31T07:56:02;12.33;;;6.50;;
74995;SDS011;63545;51.690;5.202;2023-07-31T07:58:28;12.67;;;6.60;;
74995;SDS011;63545;51.690;5.202;2023-07-31T08:00:53;11.93;;;6.30;;
74995;SDS011;63545;51.690;5.202;2023-07-31T08:03:18;13.10;;;6.50;;
74995;SDS011;63545;51.690;5.202;2023-07-31T08:05:44;12.67;;;6.70;;
74995;SDS011;63545;51.690;5.202;2023-07-31T08:08:14;11.95;;;7.30;;
74995;SDS011;63545;51.690;5.202;2023-07-31T08:10:40;14.73;;;7.18;;
74995;SDS011;63545;51.690;5.202;2023-07-31T08:13:06;14.63;;;7.63;;
74995;SDS011;63545;51.690;5.202;2023-07-31T08:15:31;17.63;;;8.90;;
74995;SDS011;63545;51.690;5.202;2023-07-31T08:17:56;11.70;;;7.57;;
74995;SDS011;63545;51.690;5.202;2023-07-31T08:20:22;14.70;;;8.47;;
74995;SDS011;63545;51.690;5.202;2023-07-31T08:22:47;13.97;;;8.77;;
74995;SDS011;63545;51.690;5.202;2023-07-31T08:25:12;14.10;;;9.10;;
74995;SDS011;63545;51.690;5.202;2023-07-31T08:27:38;13.33;;;8.43;;
74995;SDS011;63545;51.690;5.202;2023-07-31T08:30:03;17.50;;;9.13;;
74995;SDS011;63545;51.690;5.202;2023-07-31T08:32:29;15.27;;;9.30;;
74995;SDS011;63545;51.690;5.202;2023-07-31T08:34:54;18.47;;;10.50;;
74995;SDS011;63545;51.690;5.202;2023-07-31T08:37:19;16.88;;;10.35;;
74995;SDS011;63545;51.690;5.202;2023-07-31T08:39:45;16.03;;;10.20;;
74995;SDS011;63545;51.690;5.202;2023-07-31T08:42:10;18.63;;;10.37;;
74995;SDS011;63545;51.690;5.202;2023-07-31T08:44:35;19.60;;;11.33;;
74995;SDS011;63545;51.690;5.202;2023-07-31T08:47:01;21.58;;;11.85;;
74995;SDS011;63545;51.690;5.202;2023-07-31T08:49:27;18.73;;;11.23;;
74995;SDS011;63545;51.690;5.202;2023-07-31T08:51:54;23.55;;;12.13;;
74995;SDS011;63545;51.690;5.202;2023-07-31T08:54:20;18.10;;;11.40;;
74995;SDS011;63545;51.690;5.202;2023-07-31T08:56:45;27.83;;;13.03;;
74995;SDS011;63545;51.690;5.202;2023-07-31T08:59:11;20.17;;;11.95;;
74995;SDS011;63545;51.690;5.202;2023-07-31T09:01:38;25.05;;;12.70;;
74995;SDS011;63545;51.690;5.202;2023-07-31T09:04:06;24.97;;;13.77;;
74995;SDS011;63545;51.690;5.202;2023-07-31T09:06:33;22.73;;;13.40;;
74995;SDS011;63545;51.690;5.202;2023-07-31T09:08:59;23.48;;;13.32;;
74995;SDS011;63545;51.690;5.202;2023-07-31T09:11:24;22.00;;;13.10;;
74995;SDS011;63545;51.690;5.202;2023-07-31T09:13:50;26.33;;;13.70;;
74995;SDS011;63545;51.690;5.202;2023-07-31T09:16:15;27.13;;;13.90;;
74995;SDS011;63545;51.690;5.202;2023-07-31T09:18:54;22.30;;;12.77;;
74995;SDS011;63545;51.690;5.202;2023-07-31T09:21:21;25.10;;;13.73;;
74995;SDS011;63545;51.690;5.202;2023-07-31T09:23:47;25.90;;;13.70;;
74995;SDS011;63545;51.690;5.202;2023-07-31T09:26:34;25.70;;;13.63;;
74995;SDS011;63545;51.690;5.202;2023-07-31T09:29:05;24.83;;;13.07;;
74995;SDS011;63545;51.690;5.202;2023-07-31T09:31:33;21.70;;;12.60;;
74995;SDS011;63545;51.690;5.202;2023-07-31T09:34:04;20.47;;;12.27;;
74995;SDS011;63545;51.690;5.202;2023-07-31T09:36:29;27.10;;;12.57;;
74995;SDS011;63545;51.690;5.202;2023-07-31T09:38:56;16.73;;;11.10;;
74995;SDS011;63545;51.690;5.202;2023-07-31T09:41:27;21.98;;;11.57;;
74995;SDS011;63545;51.690;5.202;2023-07-31T09:43:55;19.47;;;10.97;;
74995;SDS011;63545;51.690;5.202;2023-07-31T09:46:20;18.00;;;10.73;;
74995;SDS011;63545;51.690;5.202;2023-07-31T09:48:46;20.30;;;11.40;;
74995;SDS011;63545;51.690;5.202;2023-07-31T09:51:12;20.40;;;11.07;;
74995;SDS011;63545;51.690;5.202;2023-07-31T09:53:37;14.47;;;10.00;;
74995;SDS011;63545;51.690;5.202;2023-07-31T09:56:02;18.73;;;10.37;;
74995;SDS011;63545;51.690;5.202;2023-07-31T09:58:28;17.38;;;9.82;;
74995;SDS011;63545;51.690;5.202;2023-07-31T10:00:55;18.90;;;9.88;;
74995;SDS011;63545;51.690;5.202;2023-07-31T10:03:22;14.90;;;10.35;;
74995;SDS011;63545;51.690;5.202;2023-07-31T10:05:49;19.83;;;9.60;;
74995;SDS011;63545;51.690;5.202;2023-07-31T10:08:15;14.82;;;9.63;;
74995;SDS011;63545;51.690;5.202;2023-07-31T10:10:44;14.73;;;8.43;;
74995;SDS011;63545;51.690;5.202;2023-07-31T10:13:10;12.05;;;8.07;;
74995;SDS011;63545;51.690;5.202;2023-07-31T10:15:36;15.48;;;9.10;;
74995;SDS011;63545;51.690;5.202;2023-07-31T10:18:02;17.13;;;9.50;;
74995;SDS011;63545;51.690;5.202;2023-07-31T10:20:28;13.93;;;8.53;;
74995;SDS011;63545;51.690;5.202;2023-07-31T10:22:54;15.63;;;8.95;;
74995;SDS011;63545;51.690;5.202;2023-07-31T10:25:20;15.27;;;8.73;;
74995;SDS011;63545;51.690;5.202;2023-07-31T10:27:47;14.07;;;8.27;;
74995;SDS011;63545;51.690;5.202;2023-07-31T10:30:13;14.50;;;8.10;;
74995;SDS011;63545;51.690;5.202;2023-07-31T10:32:40;15.35;;;7.63;;
74995;SDS011;63545;51.690;5.202;2023-07-31T10:35:07;10.88;;;6.38;;
74995;SDS011;63545;51.690;5.202;2023-07-31T10:37:37;13.32;;;7.63;;
74995;SDS011;63545;51.690;5.202;2023-07-31T10:40:04;15.27;;;8.03;;
74995;SDS011;63545;51.690;5.202;2023-07-31T10:42:52;16.38;;;8.50;;
74995;SDS011;63545;51.690;5.202;2023-07-31T10:45:42;11.60;;;7.30;;
74995;SDS011;63545;51.690;5.202;2023-07-31T10:48:12;11.45;;;6.03;;
74995;SDS011;63545;51.690;5.202;2023-07-31T10:50:38;9.48;;;7.28;;
74995;SDS011;63545;51.690;5.202;2023-07-31T10:53:05;14.40;;;7.87;;
74995;SDS011;63545;51.690;5.202;2023-07-31T10:55:41;9.00;;;6.20;;
74995;SDS011;63545;51.690;5.202;2023-07-31T10:58:09;14.20;;;6.72;;
74995;SDS011;63545;51.690;5.202;2023-07-31T11:00:38;7.57;;;5.70;;
74995;SDS011;63545;51.690;5.202;2023-07-31T11:03:08;12.45;;;6.53;;
74995;SDS011;63545;51.690;5.202;2023-07-31T11:05:42;11.63;;;6.27;;
74995;SDS011;63545;51.690;5.202;2023-07-31T11:10:40;12.63;;;6.43;;
74995;SDS011;63545;51.690;5.202;2023-07-31T11:13:05;11.83;;;6.73;;
74995;SDS011;63545;51.690;5.202;2023-07-31T11:15:31;12.77;;;6.93;;
74995;SDS011;63545;51.690;5.202;2023-07-31T11:17:56;11.87;;;6.67;;
74995;SDS011;63545;51.690;5.202;2023-07-31T11:20:23;10.68;;;6.53;;
74995;SDS011;63545;51.690;5.202;2023-07-31T11:22:49;11.70;;;6.53;;
74995;SDS011;63545;51.690;5.202;2023-07-31T11:25:14;10.25;;;7.05;;
74995;SDS011;63545;51.690;5.202;2023-07-31T11:27:41;9.30;;;6.57;;
74995;SDS011;63545;51.690;5.202;2023-07-31T11:30:07;10.38;;;6.57;;
74995;SDS011;63545;51.690;5.202;2023-07-31T11:32:32;7.72;;;5.47;;
74995;SDS011;63545;51.690;5.202;2023-07-31T11:34:58;11.40;;;7.07;;
74995;SDS011;63545;51.690;5.202;2023-07-31T11:37:23;9.03;;;6.20;;
74995;SDS011;63545;51.690;5.202;2023-07-31T11:39:59;12.57;;;7.27;;
74995;SDS011;63545;51.690;5.202;2023-07-31T11:42:25;11.90;;;6.97;;
74995;SDS011;63545;51.690;5.202;2023-07-31T11:44:50;9.67;;;7.00;;
74995;SDS011;63545;51.690;5.202;2023-07-31T11:47:16;9.83;;;6.80;;
74995;SDS011;63545;51.690;5.202;2023-07-31T11:49:41;12.60;;;7.33;;
74995;SDS011;63545;51.690;5.202;2023-07-31T11:52:07;13.00;;;7.97;;
74995;SDS011;63545;51.690;5.202;2023-07-31T11:54:32;13.00;;;7.10;;
74995;SDS011;63545;51.690;5.202;2023-07-31T11:56:58;11.10;;;7.23;;
74995;SDS011;63545;51.690;5.202;2023-07-31T11:59:25;15.13;;;6.68;;
74995;SDS011;63545;51.690;5.202;2023-07-31T12:01:51;11.80;;;6.83;;
74995;SDS011;63545;51.690;5.202;2023-07-31T12:04:18;14.13;;;6.82;;
74995;SDS011;63545;51.690;5.202;2023-07-31T12:06:44;9.10;;;6.38;;
74995;SDS011;63545;51.690;5.202;2023-07-31T12:09:10;14.57;;;7.50;;
74995;SDS011;63545;51.690;5.202;2023-07-31T12:11:45;12.75;;;6.85;;
74995;SDS011;63545;51.690;5.202;2023-07-31T12:14:20;14.70;;;7.00;;
74995;SDS011;63545;51.690;5.202;2023-07-31T12:16:47;12.45;;;7.25;;
74995;SDS011;63545;51.690;5.202;2023-07-31T12:19:12;10.93;;;7.43;;
74995;SDS011;63545;51.690;5.202;2023-07-31T12:21:38;10.85;;;7.18;;
74995;SDS011;63545;51.690;5.202;2023-07-31T12:24:03;14.17;;;7.10;;
74995;SDS011;63545;51.690;5.202;2023-07-31T12:26:33;11.73;;;7.50;;
74995;SDS011;63545;51.690;5.202;2023-07-31T12:28:59;11.52;;;7.35;;
74995;SDS011;63545;51.690;5.202;2023-07-31T12:31:25;16.53;;;8.00;;
74995;SDS011;63545;51.690;5.202;2023-07-31T12:33:53;13.55;;;7.13;;
74995;SDS011;63545;51.690;5.202;2023-07-31T12:36:20;14.50;;;7.70;;
74995;SDS011;63545;51.690;5.202;2023-07-31T12:38:46;14.23;;;6.80;;
74995;SDS011;63545;51.690;5.202;2023-07-31T12:41:12;12.17;;;6.73;;
74995;SDS011;63545;51.690;5.202;2023-07-31T12:43:37;11.97;;;7.00;;
74995;SDS011;63545;51.690;5.202;2023-07-31T12:46:04;13.90;;;6.95;;
74995;SDS011;63545;51.690;5.202;2023-07-31T12:48:31;11.45;;;6.80;;
74995;SDS011;63545;51.690;5.202;2023-07-31T12:50:57;13.75;;;7.38;;
74995;SDS011;63545;51.690;5.202;2023-07-31T12:53:22;13.63;;;7.20;;
74995;SDS011;63545;51.690;5.202;2023-07-31T12:55:47;13.50;;;7.60;;
74995;SDS011;63545;51.690;5.202;2023-07-31T12:58:13;15.27;;;7.43;;
74995;SDS011;63545;51.690;5.202;2023-07-31T13:00:38;13.83;;;8.00;;
74995;SDS011;63545;51.690;5.202;2023-07-31T13:03:03;14.50;;;7.53;;
74995;SDS011;63545;51.690;5.202;2023-07-31T13:05:29;11.63;;;7.37;;
74995;SDS011;63545;51.690;5.202;2023-07-31T13:07:54;14.88;;;7.80;;
74995;SDS011;63545;51.690;5.202;2023-07-31T13:10:20;16.57;;;7.50;;
74995;SDS011;63545;51.690;5.202;2023-07-31T13:12:46;15.88;;;7.70;;
74995;SDS011;63545;51.690;5.202;2023-07-31T13:15:12;20.57;;;8.13;;
74995;SDS011;63545;51.690;5.202;2023-07-31T13:17:37;11.73;;;7.37;;
74995;SDS011;63545;51.690;5.202;2023-07-31T13:20:02;18.87;;;8.67;;
74995;SDS011;63545;51.690;5.202;2023-07-31T13:22:28;19.88;;;8.05;;
74995;SDS011;63545;51.690;5.202;2023-07-31T13:24:54;17.50;;;8.00;;
74995;SDS011;63545;51.690;5.202;2023-07-31T13:27:19;12.93;;;7.43;;
74995;SDS011;63545;51.690;5.202;2023-07-31T13:29:46;17.42;;;8.55;;
74995;SDS011;63545;51.690;5.202;2023-07-31T13:32:12;16.40;;;7.68;;
74995;SDS011;63545;51.690;5.202;2023-07-31T13:34:38;15.27;;;7.40;;
74995;SDS011;63545;51.690;5.202;2023-07-31T13:37:03;15.15;;;7.28;;
74995;SDS011;63545;51.690;5.202;2023-07-31T13:39:31;16.52;;;7.90;;
74995;SDS011;63545;51.690;5.202;2023-07-31T13:41:57;13.33;;;8.03;;
74995;SDS011;63545;51.690;5.202;2023-07-31T13:44:23;18.50;;;8.20;;
74995;SDS011;63545;51.690;5.202;2023-07-31T13:46:48;16.88;;;7.57;;
74995;SDS011;63545;51.690;5.202;2023-07-31T13:49:13;20.80;;;7.50;;
74995;SDS011;63545;51.690;5.202;2023-07-31T13:51:39;14.20;;;7.70;;
74995;SDS011;63545;51.690;5.202;2023-07-31T13:54:04;19.50;;;8.27;;
74995;SDS011;63545;51.690;5.202;2023-07-31T13:56:31;16.85;;;8.35;;
74995;SDS011;63545;51.690;5.202;2023-07-31T13:58:56;15.27;;;8.33;;
74995;SDS011;63545;51.690;5.202;2023-07-31T14:01:22;16.57;;;8.33;;
74995;SDS011;63545;51.690;5.202;2023-07-31T14:03:47;19.10;;;8.85;;
74995;SDS011;63545;51.690;5.202;2023-07-31T14:06:12;20.53;;;9.10;;
74995;SDS011;63545;51.690;5.202;2023-07-31T14:08:38;15.73;;;8.00;;
74995;SDS011;63545;51.690;5.202;2023-07-31T14:11:03;17.50;;;9.10;;
74995;SDS011;63545;51.690;5.202;2023-07-31T14:13:29;18.83;;;9.07;;
74995;SDS011;63545;51.690;5.202;2023-07-31T14:15:54;19.63;;;8.63;;
74995;SDS011;63545;51.690;5.202;2023-07-31T14:18:19;23.70;;;8.80;;
74995;SDS011;63545;51.690;5.202;2023-07-31T14:20:45;17.90;;;8.30;;
74995;SDS011;63545;51.690;5.202;2023-07-31T14:23:10;18.37;;;8.60;;
74995;SDS011;63545;51.690;5.202;2023-07-31T14:25:35;18.27;;;9.27;;
74995;SDS011;63545;51.690;5.202;2023-07-31T14:28:01;16.60;;;8.77;;
74995;SDS011;63545;51.690;5.202;2023-07-31T14:30:26;22.07;;;9.73;;
74995;SDS011;63545;51.690;5.202;2023-07-31T14:32:51;21.13;;;8.40;;
74995;SDS011;63545;51.690;5.202;2023-07-31T14:35:17;18.77;;;8.63;;